createdAt,value
2022-09-04T00:00:14.949Z,20.18
2022-09-04T00:01:54.725Z,20.18
2022-09-04T00:05:14.259Z,20.12
2022-09-04T00:06:54.024Z,20.1
2022-09-04T00:08:33.786Z,20.1
2022-09-04T00:10:13.555Z,20.06
2022-09-04T00:11:53.332Z,20.04
2022-09-04T00:13:33.101Z,20.04
2022-09-04T00:15:12.898Z,20.03
2022-09-04T00:16:52.637Z,20
2022-09-04T00:18:32.400Z,19.99
2022-09-04T00:20:12.161Z,19.96
2022-09-04T00:21:51.940Z,19.95
2022-09-04T00:25:11.477Z,19.92
2022-09-04T00:26:51.229Z,19.87
2022-09-04T00:28:31.036Z,19.89
2022-09-04T00:30:10.768Z,19.87
2022-09-04T00:31:50.556Z,19.85
2022-09-04T00:35:10.083Z,19.81
2022-09-04T00:36:49.837Z,19.78
2022-09-04T00:38:29.615Z,19.78
2022-09-04T00:40:09.389Z,19.75
2022-09-04T00:41:49.138Z,19.74
2022-09-04T00:43:28.932Z,19.7
2022-09-04T00:45:08.696Z,19.69
2022-09-04T00:46:48.497Z,19.69
2022-09-04T00:48:28.215Z,19.66
2022-09-04T00:50:08.002Z,19.65
2022-09-04T00:51:47.757Z,19.62
2022-09-04T00:55:07.290Z,19.59
2022-09-04T00:56:47.061Z,19.57
2022-09-04T00:58:26.841Z,19.57
2022-09-04T01:01:46.353Z,19.52
2022-09-04T01:05:05.892Z,19.5
2022-09-04T01:06:45.651Z,19.46
2022-09-04T01:08:25.458Z,19.45
2022-09-04T01:10:05.193Z,19.45
2022-09-04T01:11:44.974Z,19.44
2022-09-04T01:13:24.776Z,19.41
2022-09-04T01:15:04.506Z,19.4
2022-09-04T01:16:44.256Z,19.39
2022-09-04T01:18:24.045Z,19.36
2022-09-04T01:20:03.820Z,19.35
2022-09-04T01:21:43.578Z,19.34
2022-09-04T01:25:03.169Z,19.29
2022-09-04T01:26:42.865Z,19.28
2022-09-04T01:28:22.641Z,19.25
2022-09-04T01:30:02.393Z,19.26
2022-09-04T01:31:42.156Z,19.23
2022-09-04T01:35:01.703Z,19.2
2022-09-04T01:36:41.484Z,19.2
2022-09-04T01:38:21.264Z,19.16
2022-09-04T01:40:01.062Z,19.14
2022-09-04T01:41:40.797Z,19.12
2022-09-04T01:43:20.577Z,19.12
2022-09-04T01:45:00.305Z,19.1
2022-09-04T01:46:40.078Z,19.09
2022-09-04T01:48:19.847Z,19.08
2022-09-04T01:49:59.611Z,19.06
2022-09-04T01:51:39.365Z,19.04
2022-09-04T01:54:58.916Z,19.02
2022-09-04T01:56:38.691Z,18.99
2022-09-04T01:58:18.446Z,18.98
2022-09-04T01:59:58.228Z,18.95
2022-09-04T02:01:38.082Z,18.93
2022-09-04T02:03:17.804Z,18.92
2022-09-04T02:04:57.539Z,18.92
2022-09-04T02:06:37.290Z,18.9
2022-09-04T02:08:17.045Z,18.87
2022-09-04T02:09:56.827Z,18.85
2022-09-04T02:11:36.594Z,18.85
2022-09-04T02:13:16.361Z,18.85
2022-09-04T02:14:56.118Z,18.81
2022-09-04T02:16:35.889Z,18.81
2022-09-04T02:18:15.675Z,18.79
2022-09-04T02:19:55.498Z,18.77
2022-09-04T02:21:35.200Z,18.77
2022-09-04T02:24:54.725Z,18.73
2022-09-04T02:26:34.503Z,18.71
2022-09-04T02:28:14.295Z,18.69
2022-09-04T02:29:54.040Z,18.69
2022-09-04T02:31:33.821Z,18.67
2022-09-04T02:33:13.560Z,18.66
2022-09-04T02:34:53.352Z,18.62
2022-09-04T02:36:33.100Z,18.62
2022-09-04T02:38:12.887Z,18.6
2022-09-04T02:39:52.644Z,18.58
2022-09-04T02:41:32.432Z,18.57
2022-09-04T02:43:12.168Z,18.54
2022-09-04T02:44:51.934Z,18.54
2022-09-04T02:48:11.463Z,18.51
2022-09-04T02:49:51.265Z,18.51
2022-09-04T02:51:31.005Z,18.48
2022-09-04T02:53:10.774Z,18.46
2022-09-04T02:54:50.597Z,18.45
2022-09-04T02:56:30.325Z,18.45
2022-09-04T02:58:10.079Z,18.44
2022-09-04T02:59:49.839Z,18.41
2022-09-04T03:01:29.650Z,18.42
2022-09-04T03:03:09.381Z,18.37
2022-09-04T03:04:49.146Z,18.37
2022-09-04T03:06:28.936Z,18.37
2022-09-04T03:08:08.684Z,18.35
2022-09-04T03:09:48.454Z,18.35
2022-09-04T03:11:28.261Z,18.34
2022-09-04T03:13:08.012Z,18.32
2022-09-04T03:14:47.768Z,18.31
2022-09-04T03:18:07.301Z,18.28
2022-09-04T03:19:47.143Z,18.27
2022-09-04T03:21:26.812Z,18.25
2022-09-04T03:23:06.604Z,18.21
2022-09-04T03:24:46.404Z,18.23
2022-09-04T03:26:26.128Z,18.2
2022-09-04T03:28:05.898Z,18.2
2022-09-04T03:29:45.697Z,18.17
2022-09-04T03:31:25.432Z,18.18
2022-09-04T03:33:05.198Z,18.16
2022-09-04T03:34:44.950Z,18.15
2022-09-04T03:36:24.726Z,18.12
2022-09-04T03:38:04.494Z,18.12
2022-09-04T03:39:44.268Z,18.1
2022-09-04T03:41:24.041Z,18.11
2022-09-04T03:43:03.806Z,18.08
2022-09-04T03:44:43.567Z,18.06
2022-09-04T03:46:23.335Z,18.04
2022-09-04T03:48:03.104Z,18.06
2022-09-04T03:49:42.862Z,18.03
2022-09-04T03:51:22.633Z,18.02
2022-09-04T03:53:02.394Z,18
2022-09-04T03:54:42.175Z,18.01
2022-09-04T03:56:21.936Z,17.99
2022-09-04T03:58:01.737Z,17.98
2022-09-04T03:59:41.472Z,17.98
2022-09-04T04:01:21.233Z,17.96
2022-09-04T04:03:01.012Z,17.94
2022-09-04T04:04:40.773Z,17.96
2022-09-04T04:06:20.550Z,17.99
2022-09-04T04:08:00.301Z,17.99
2022-09-04T04:09:40.084Z,18
2022-09-04T04:11:19.893Z,18.04
2022-09-04T04:12:59.640Z,18.02
2022-09-04T04:14:39.394Z,18.06
2022-09-04T04:16:19.137Z,18.04
2022-09-04T04:17:58.906Z,18.06
2022-09-04T04:19:38.675Z,18.08
2022-09-04T04:21:18.447Z,18.07
2022-09-04T04:22:58.208Z,18.08
2022-09-04T04:26:17.740Z,18.11
2022-09-04T04:27:57.521Z,18.12
2022-09-04T04:29:37.277Z,18.1
2022-09-04T04:31:17.049Z,18.11
2022-09-04T04:34:36.578Z,18.1
2022-09-04T04:36:16.373Z,18.12
2022-09-04T04:37:56.144Z,18.12
2022-09-04T04:39:35.893Z,18.12
2022-09-04T04:41:15.655Z,18.12
2022-09-04T04:42:55.430Z,18.12
2022-09-04T04:44:35.200Z,18.12
2022-09-04T04:46:14.975Z,18.14
2022-09-04T04:47:54.742Z,18.12
2022-09-04T04:49:34.512Z,18.1
2022-09-04T04:51:14.270Z,18.12
2022-09-04T04:54:33.825Z,18.11
2022-09-04T04:56:13.588Z,18.09
2022-09-04T04:57:53.351Z,18.07
2022-09-04T04:59:33.131Z,18.07
2022-09-04T05:01:12.891Z,18.07
2022-09-04T05:02:52.668Z,18.07
2022-09-04T05:04:32.461Z,18.04
2022-09-04T05:06:12.224Z,18.08
2022-09-04T05:07:51.973Z,18.06
2022-09-04T05:09:31.745Z,18.04
2022-09-04T05:11:11.506Z,18.04
2022-09-04T05:14:31.072Z,18.03
2022-09-04T05:16:10.826Z,18
2022-09-04T05:17:50.582Z,18
2022-09-04T05:21:10.138Z,17.96
2022-09-04T05:24:29.693Z,17.96
2022-09-04T05:26:09.436Z,17.95
2022-09-04T05:27:49.224Z,17.95
2022-09-04T05:29:28.976Z,17.95
2022-09-04T05:31:08.748Z,17.93
2022-09-04T05:32:48.522Z,17.94
2022-09-04T05:34:28.336Z,17.91
2022-09-04T05:36:08.082Z,17.92
2022-09-04T05:37:47.845Z,17.92
2022-09-04T05:39:27.612Z,17.92
2022-09-04T05:41:07.398Z,17.89
2022-09-04T05:42:47.159Z,17.89
2022-09-04T05:44:26.942Z,17.89
2022-09-04T05:46:06.697Z,17.9
2022-09-04T05:47:46.479Z,17.87
2022-09-04T05:49:26.235Z,17.91
2022-09-04T05:51:06.005Z,17.89
2022-09-04T05:54:25.533Z,17.89
2022-09-04T05:56:05.310Z,17.86
2022-09-04T05:57:45.084Z,17.89
2022-09-04T05:59:24.843Z,17.89
2022-09-04T06:02:44.424Z,17.87
2022-09-04T06:04:24.173Z,17.89
2022-09-04T06:06:03.924Z,17.96
2022-09-04T06:07:43.702Z,18.01
2022-09-04T06:09:23.479Z,18.09
2022-09-04T06:11:03.248Z,18.14
2022-09-04T06:14:22.785Z,18.25
2022-09-04T06:16:02.546Z,18.31
2022-09-04T06:19:22.091Z,18.44
2022-09-04T06:21:01.873Z,18.46
2022-09-04T06:22:41.644Z,18.53
2022-09-04T06:24:21.422Z,18.6
2022-09-04T06:26:01.239Z,18.65
2022-09-04T06:27:40.992Z,18.71
2022-09-04T06:29:20.721Z,18.75
2022-09-04T06:31:00.499Z,18.81
2022-09-04T06:35:59.805Z,18.95
2022-09-04T06:37:39.566Z,19
2022-09-04T06:39:19.348Z,19.03
2022-09-04T06:40:59.108Z,19.1
2022-09-04T06:42:38.876Z,19.11
2022-09-04T06:44:18.656Z,19.16
2022-09-04T06:45:58.414Z,19.2
2022-09-04T06:47:38.234Z,19.27
2022-09-04T06:49:17.951Z,19.32
2022-09-04T06:50:57.729Z,19.37
2022-09-04T06:54:17.260Z,19.45
2022-09-04T06:55:57.036Z,19.52
2022-09-04T06:57:36.824Z,19.54
2022-09-04T06:59:16.603Z,19.59
2022-09-04T07:00:56.356Z,19.62
2022-09-04T07:02:36.132Z,19.7
2022-09-04T07:04:15.935Z,19.74
2022-09-04T07:05:55.702Z,19.77
2022-09-04T07:07:35.456Z,19.83
2022-09-04T07:09:15.258Z,19.87
2022-09-04T07:10:54.987Z,19.91
2022-09-04T07:12:34.760Z,19.94
2022-09-04T07:14:14.526Z,20.01
2022-09-04T07:15:54.281Z,20.04
2022-09-04T07:17:34.062Z,20.1
2022-09-04T07:19:13.826Z,20.12
2022-09-04T07:20:53.603Z,20.18
2022-09-04T07:24:13.148Z,20.28
2022-09-04T07:25:52.930Z,20.31
2022-09-04T07:27:32.685Z,20.34
2022-09-04T07:29:12.451Z,20.37
2022-09-04T07:30:52.251Z,20.43
2022-09-04T07:32:31.988Z,20.48
2022-09-04T07:34:11.786Z,20.51
2022-09-04T07:35:51.527Z,20.55
2022-09-04T07:37:31.322Z,20.63
2022-09-04T07:39:11.085Z,20.65
2022-09-04T07:40:50.855Z,20.71
2022-09-04T07:42:30.635Z,20.75
2022-09-04T07:44:10.409Z,20.8
2022-09-04T07:45:50.155Z,20.82
2022-09-04T07:47:29.933Z,20.89
2022-09-04T07:49:09.710Z,20.92
2022-09-04T07:50:49.472Z,20.94
2022-09-04T07:52:29.232Z,20.99
2022-09-04T07:54:09.022Z,21.04
2022-09-04T07:55:48.788Z,21.08
2022-09-04T07:57:28.547Z,21.12
2022-09-04T07:59:08.318Z,21.17
2022-09-04T08:00:48.096Z,21.23
2022-09-04T08:02:27.854Z,21.25
2022-09-04T08:04:07.652Z,21.28
2022-09-04T08:05:47.415Z,21.32
2022-09-04T08:07:27.172Z,21.36
2022-09-04T08:09:06.976Z,21.41
2022-09-04T08:10:46.704Z,21.45
2022-09-04T08:12:26.487Z,21.46
2022-09-04T08:14:06.267Z,21.5
2022-09-04T08:15:46.043Z,21.56
2022-09-04T08:17:25.800Z,21.58
2022-09-04T08:19:05.563Z,21.62
2022-09-04T08:20:45.332Z,21.65
2022-09-04T08:22:25.120Z,21.67
2022-09-04T08:24:04.930Z,21.72
2022-09-04T08:27:24.467Z,21.82
2022-09-04T08:29:04.190Z,21.85
2022-09-04T08:30:43.957Z,21.86
2022-09-04T08:32:23.744Z,21.87
2022-09-04T08:34:03.514Z,21.95
2022-09-04T08:35:43.268Z,21.99
2022-09-04T08:37:23.049Z,21.99
2022-09-04T08:39:02.812Z,22.05
2022-09-04T08:40:42.583Z,22.07
2022-09-04T08:44:02.132Z,22.14
2022-09-04T08:45:41.893Z,22.16
2022-09-04T08:47:21.670Z,22.21
2022-09-04T08:49:01.437Z,22.24
2022-09-04T08:50:41.193Z,22.27
2022-09-04T08:54:00.754Z,22.33
2022-09-04T08:55:40.510Z,22.38
2022-09-04T08:57:20.286Z,22.41
2022-09-04T08:59:00.057Z,22.43
2022-09-04T09:00:39.838Z,22.47
2022-09-04T09:02:19.600Z,22.51
2022-09-04T09:03:59.366Z,22.53
2022-09-04T09:05:39.148Z,22.6
2022-09-04T09:07:18.914Z,22.63
2022-09-04T09:10:38.442Z,22.7
2022-09-04T09:12:18.224Z,22.74
2022-09-04T09:13:57.988Z,22.75
2022-09-04T09:15:37.763Z,22.75
2022-09-04T09:17:17.537Z,22.68
2022-09-04T09:18:57.311Z,22.64
2022-09-04T09:20:37.066Z,22.58
2022-09-04T09:22:16.842Z,22.53
2022-09-04T09:23:56.614Z,22.45
2022-09-04T09:27:16.171Z,22.38
2022-09-04T09:28:55.924Z,22.4
2022-09-04T09:30:35.694Z,22.42
2022-09-04T09:33:55.270Z,22.47
2022-09-04T09:35:35.002Z,22.48
2022-09-04T09:37:14.775Z,22.5
2022-09-04T09:38:54.555Z,22.55
2022-09-04T09:40:34.300Z,22.58
2022-09-04T09:42:14.091Z,22.59
2022-09-04T09:43:53.868Z,22.64
2022-09-04T09:45:33.618Z,22.63
2022-09-04T09:47:13.416Z,22.69
2022-09-04T09:48:53.183Z,22.7
2022-09-04T09:50:32.936Z,22.75
2022-09-04T09:53:52.466Z,22.81
2022-09-04T09:55:32.288Z,22.84
2022-09-04T09:57:12.004Z,22.85
2022-09-04T09:58:51.821Z,22.88
2022-09-04T10:00:31.581Z,22.93
2022-09-04T10:03:51.089Z,22.98
2022-09-04T10:05:30.871Z,23
2022-09-04T10:07:10.632Z,23.02
2022-09-04T10:08:50.423Z,23.06
2022-09-04T10:10:30.178Z,23.09
2022-09-04T10:13:49.726Z,23.15
2022-09-04T10:17:09.254Z,23.22
2022-09-04T10:18:49.031Z,23.21
2022-09-04T10:20:28.805Z,23.28
2022-09-04T10:23:48.349Z,23.31
2022-09-04T10:25:28.117Z,23.35
2022-09-04T10:27:07.912Z,23.39
2022-09-04T10:28:47.643Z,23.41
2022-09-04T10:30:27.427Z,23.44
2022-09-04T10:32:07.229Z,23.46
2022-09-04T10:33:46.975Z,23.51
2022-09-04T10:35:26.757Z,23.52
2022-09-04T10:37:06.505Z,23.56
2022-09-04T10:38:46.272Z,23.57
2022-09-04T10:40:26.038Z,23.61
2022-09-04T10:42:05.824Z,23.64
2022-09-04T10:43:45.650Z,23.67
2022-09-04T10:45:25.355Z,23.67
2022-09-04T10:47:05.121Z,23.72
2022-09-04T10:48:44.900Z,23.75
2022-09-04T10:50:24.673Z,23.79
2022-09-04T10:53:44.202Z,23.83
2022-09-04T10:55:23.984Z,23.87
2022-09-04T10:57:03.759Z,23.91
2022-09-04T10:58:43.523Z,23.9
2022-09-04T11:00:23.318Z,23.93
2022-09-04T11:02:03.075Z,23.96
2022-09-04T11:03:42.831Z,23.99
2022-09-04T11:05:22.606Z,24.01
2022-09-04T11:07:02.367Z,24.03
2022-09-04T11:08:42.165Z,24.06
2022-09-04T11:10:21.925Z,24.12
2022-09-04T11:12:01.690Z,24.13
2022-09-04T11:13:41.448Z,24.17
2022-09-04T11:15:21.230Z,24.18
2022-09-04T11:17:00.996Z,24.23
2022-09-04T11:18:40.784Z,24.24
2022-09-04T11:20:20.538Z,24.31
2022-09-04T11:23:40.063Z,24.36
2022-09-04T11:25:19.848Z,24.36
2022-09-04T11:26:59.626Z,24.41
2022-09-04T11:28:39.383Z,24.46
2022-09-04T11:30:19.158Z,24.45
2022-09-04T11:33:38.702Z,24.53
2022-09-04T11:35:18.468Z,24.55
2022-09-04T11:36:58.280Z,24.6
2022-09-04T11:38:38.015Z,24.63
2022-09-04T11:40:17.777Z,24.64
2022-09-04T11:41:57.549Z,24.68
2022-09-04T11:43:37.335Z,24.7
2022-09-04T11:45:17.086Z,24.73
2022-09-04T11:46:56.890Z,24.75
2022-09-04T11:50:16.400Z,24.82
2022-09-04T11:51:56.164Z,24.85
2022-09-04T11:53:35.967Z,24.88
2022-09-04T11:55:15.713Z,24.91
2022-09-04T11:56:55.509Z,24.94
2022-09-04T11:58:35.269Z,24.95
2022-09-04T12:00:15.021Z,25
2022-09-04T12:01:54.789Z,25.02
2022-09-04T12:03:34.562Z,25.03
2022-09-04T12:05:14.367Z,25.08
2022-09-04T12:06:54.121Z,25.12
2022-09-04T12:10:13.650Z,25.17
2022-09-04T12:11:53.410Z,25.19
2022-09-04T12:13:33.198Z,25.22
2022-09-04T12:15:12.957Z,25.25
2022-09-04T12:16:52.774Z,25.29
2022-09-04T12:18:32.533Z,25.31
2022-09-04T12:20:12.311Z,25.34
2022-09-04T12:21:52.032Z,25.38
2022-09-04T12:23:31.798Z,25.4
2022-09-04T12:25:11.581Z,25.45
2022-09-04T12:26:51.357Z,25.47
2022-09-04T12:28:31.142Z,25.5
2022-09-04T12:30:10.900Z,25.5
2022-09-04T12:31:50.671Z,25.55
2022-09-04T12:33:30.447Z,25.59
2022-09-04T12:35:10.217Z,25.61
2022-09-04T12:36:49.971Z,25.64
2022-09-04T12:38:29.764Z,25.65
2022-09-04T12:40:09.515Z,25.7
2022-09-04T12:41:49.280Z,25.73
2022-09-04T12:43:29.054Z,25.74
2022-09-04T12:46:48.640Z,25.81
2022-09-04T12:48:28.369Z,25.84
2022-09-04T12:50:08.203Z,25.87
2022-09-04T12:51:47.955Z,25.88
2022-09-04T12:53:27.677Z,25.93
2022-09-04T12:55:07.452Z,25.94
2022-09-04T12:56:47.219Z,26
2022-09-04T12:58:27.006Z,26.02
2022-09-04T13:00:06.809Z,26.05
2022-09-04T13:01:46.517Z,26.08
2022-09-04T13:03:26.292Z,26.12
2022-09-04T13:05:06.096Z,26.13
2022-09-04T13:06:45.872Z,26.19
2022-09-04T13:08:25.633Z,26.21
2022-09-04T13:10:05.394Z,26.25
2022-09-04T13:11:45.161Z,26.26
2022-09-04T13:13:24.918Z,26.29
2022-09-04T13:15:04.683Z,26.32
2022-09-04T13:16:44.517Z,26.36
2022-09-04T13:18:24.240Z,26.39
2022-09-04T13:20:04.055Z,26.4
2022-09-04T13:21:43.835Z,26.45
2022-09-04T13:23:23.552Z,26.47
2022-09-04T13:25:03.319Z,26.49
2022-09-04T13:26:43.082Z,26.52
2022-09-04T13:28:22.869Z,26.57
2022-09-04T13:30:02.638Z,26.58
2022-09-04T13:31:42.388Z,26.59
2022-09-04T13:33:22.180Z,26.63
2022-09-04T13:35:01.945Z,26.64
2022-09-04T13:36:41.764Z,26.68
2022-09-04T13:38:21.471Z,26.68
2022-09-04T13:40:01.280Z,26.71
2022-09-04T13:41:41.037Z,26.76
2022-09-04T13:43:20.830Z,26.75
2022-09-04T13:45:00.572Z,26.77
2022-09-04T13:46:40.352Z,26.82
2022-09-04T13:48:20.098Z,26.81
2022-09-04T13:49:59.909Z,26.86
2022-09-04T13:51:39.654Z,26.87
2022-09-04T13:53:19.485Z,26.91
2022-09-04T13:54:59.227Z,26.93
2022-09-04T13:56:38.973Z,26.92
2022-09-04T13:58:18.726Z,26.95
2022-09-04T13:59:58.502Z,26.97
2022-09-04T14:01:38.274Z,26.98
2022-09-04T14:03:18.101Z,27
2022-09-04T14:06:37.606Z,27.05
2022-09-04T14:08:17.405Z,27.05
2022-09-04T14:09:57.109Z,27.08
2022-09-04T14:11:36.897Z,27.09
2022-09-04T14:13:16.687Z,27.11
2022-09-04T14:14:56.426Z,27.16
2022-09-04T14:16:36.199Z,27.15
2022-09-04T14:18:16.030Z,27.18
2022-09-04T14:19:55.756Z,27.19
2022-09-04T14:23:15.309Z,27.23
2022-09-04T14:24:55.050Z,27.23
2022-09-04T14:26:34.894Z,27.23
2022-09-04T14:28:14.649Z,27.28
2022-09-04T14:29:54.393Z,27.29
2022-09-04T14:31:34.135Z,27.29
2022-09-04T14:33:13.908Z,27.3
2022-09-04T14:34:53.667Z,27.34
2022-09-04T14:36:33.449Z,27.34
2022-09-04T14:38:13.215Z,27.37
2022-09-04T14:39:52.984Z,27.38
2022-09-04T14:41:32.766Z,27.38
2022-09-04T14:43:12.536Z,27.36
2022-09-04T14:44:52.301Z,27.39
2022-09-04T14:46:32.064Z,27.39
2022-09-04T14:48:11.858Z,27.38
2022-09-04T14:49:51.613Z,27.4
2022-09-04T14:51:31.371Z,27.4
2022-09-04T14:54:50.930Z,27.42
2022-09-04T14:56:30.700Z,27.42
2022-09-04T14:58:10.456Z,27.41
2022-09-04T14:59:50.235Z,27.42
2022-09-04T15:03:09.777Z,27.45
2022-09-04T15:04:49.553Z,27.46
2022-09-04T15:06:29.312Z,27.46
2022-09-04T15:13:08.397Z,27.45
2022-09-04T15:14:48.173Z,27.46
2022-09-04T15:16:27.931Z,27.48
2022-09-04T15:18:07.731Z,27.49
2022-09-04T15:19:47.485Z,27.47
2022-09-04T15:23:07.027Z,27.5
2022-09-04T15:24:46.804Z,27.49
2022-09-04T15:28:06.331Z,27.5
2022-09-04T15:29:46.103Z,27.49
2022-09-04T15:31:25.879Z,27.51
2022-09-04T15:33:05.666Z,27.51
2022-09-04T15:34:45.427Z,27.5
2022-09-04T15:36:25.183Z,27.52
2022-09-04T15:38:04.965Z,27.52
2022-09-04T15:39:44.745Z,27.53
2022-09-04T15:41:24.503Z,27.54
2022-09-04T15:43:04.281Z,27.54
2022-09-04T15:44:44.038Z,27.56
2022-09-04T15:46:23.809Z,27.56
2022-09-04T15:48:03.587Z,27.55
2022-09-04T15:49:43.358Z,27.58
2022-09-04T15:51:23.149Z,27.57
2022-09-04T15:53:02.890Z,27.55
2022-09-04T15:54:42.655Z,27.59
2022-09-04T15:56:22.435Z,27.56
2022-09-04T15:58:02.219Z,27.59
2022-09-04T15:59:41.971Z,27.57
2022-09-04T16:01:21.742Z,27.58
2022-09-04T16:03:01.512Z,27.61
2022-09-04T16:04:41.292Z,27.62
2022-09-04T16:06:21.060Z,27.62
2022-09-04T16:08:00.838Z,27.61
2022-09-04T16:09:40.597Z,27.64
2022-09-04T16:11:20.371Z,27.64
2022-09-04T16:13:00.142Z,27.62
2022-09-04T16:14:39.911Z,27.65
2022-09-04T16:16:19.690Z,27.63
2022-09-04T16:17:59.448Z,27.65
2022-09-04T16:19:39.231Z,27.65
2022-09-04T16:21:18.986Z,27.66
2022-09-04T16:24:38.529Z,27.68
2022-09-04T16:26:18.309Z,27.69
2022-09-04T16:27:58.069Z,27.7
2022-09-04T16:29:37.840Z,27.72
2022-09-04T16:34:37.159Z,27.71
2022-09-04T16:36:16.915Z,27.74
2022-09-04T16:37:56.706Z,27.72
2022-09-04T16:39:36.455Z,27.72
2022-09-04T16:41:16.267Z,27.71
2022-09-04T16:42:56.015Z,27.71
2022-09-04T16:44:35.780Z,27.67
2022-09-04T16:46:15.548Z,27.68
2022-09-04T16:47:55.315Z,27.66
2022-09-04T16:49:35.096Z,27.62
2022-09-04T16:52:54.626Z,27.59
2022-09-04T16:54:34.410Z,27.58
2022-09-04T16:56:14.179Z,27.56
2022-09-04T16:57:53.945Z,27.53
2022-09-04T16:59:33.712Z,27.52
2022-09-04T17:02:53.263Z,27.48
2022-09-04T17:04:33.043Z,27.47
2022-09-04T17:06:12.809Z,27.45
2022-09-04T17:07:52.601Z,27.44
2022-09-04T17:09:32.337Z,27.41
2022-09-04T17:11:12.139Z,27.4
2022-09-04T17:12:51.885Z,27.37
2022-09-04T17:14:31.653Z,27.36
2022-09-04T17:16:11.418Z,27.35
2022-09-04T17:17:51.185Z,27.33
2022-09-04T17:19:30.960Z,27.31
2022-09-04T17:21:10.728Z,27.3
2022-09-04T17:22:50.507Z,27.27
2022-09-04T17:24:30.277Z,27.25
2022-09-04T17:26:10.045Z,27.23
2022-09-04T17:29:29.583Z,27.2
2022-09-04T17:31:09.366Z,27.19
2022-09-04T17:32:49.186Z,27.17
2022-09-04T17:34:28.894Z,27.13
2022-09-04T17:36:08.661Z,27.14
2022-09-04T17:37:48.442Z,27.12
2022-09-04T17:39:28.199Z,27.05
2022-09-04T17:42:47.737Z,26.95
2022-09-04T17:44:27.502Z,26.92
2022-09-04T17:46:07.295Z,26.86
2022-09-04T17:47:47.056Z,26.83
2022-09-04T17:49:26.801Z,26.83
2022-09-04T17:51:06.600Z,26.77
2022-09-04T17:52:46.335Z,26.75
2022-09-04T17:54:26.108Z,26.73
2022-09-04T17:56:05.942Z,26.7
2022-09-04T17:57:45.658Z,26.65
2022-09-04T17:59:25.415Z,26.59
2022-09-04T18:02:44.959Z,26.55
2022-09-04T18:04:24.721Z,26.51
2022-09-04T18:06:04.493Z,26.47
2022-09-04T18:07:44.264Z,26.44
2022-09-04T18:09:24.024Z,26.39
2022-09-04T18:11:03.809Z,26.33
2022-09-04T18:12:43.568Z,26.27
2022-09-04T18:14:23.324Z,26.23
2022-09-04T18:16:03.098Z,26.18
2022-09-04T18:17:42.864Z,26.12
2022-09-04T18:19:22.622Z,26.06
2022-09-04T18:21:02.406Z,26.01
2022-09-04T18:22:42.174Z,25.94
2022-09-04T18:24:21.955Z,25.9
2022-09-04T18:26:01.715Z,25.86
2022-09-04T18:27:41.466Z,25.79
2022-09-04T18:29:21.222Z,25.76
2022-09-04T18:32:40.757Z,25.66
2022-09-04T18:34:20.530Z,25.61
2022-09-04T18:36:00.307Z,25.58
2022-09-04T18:37:40.076Z,25.51
2022-09-04T18:39:19.839Z,25.47
2022-09-04T18:42:39.372Z,25.37
2022-09-04T18:44:19.147Z,25.35
2022-09-04T18:45:58.912Z,25.29
2022-09-04T18:47:38.683Z,25.25
2022-09-04T18:49:18.440Z,25.22
2022-09-04T18:50:58.244Z,25.16
2022-09-04T18:52:37.967Z,25.14
2022-09-04T18:54:17.758Z,25.1
2022-09-04T18:55:57.515Z,25.03
2022-09-04T18:57:37.296Z,25
2022-09-04T18:59:17.053Z,24.97
2022-09-04T19:04:16.371Z,24.84
2022-09-04T19:05:56.110Z,24.79
2022-09-04T19:07:35.889Z,24.77
2022-09-04T19:09:15.656Z,24.71
2022-09-04T19:12:35.194Z,24.63
2022-09-04T19:14:14.982Z,24.61
2022-09-04T19:15:54.718Z,24.56
2022-09-04T19:17:34.509Z,24.54
2022-09-04T19:19:14.247Z,24.49
2022-09-04T19:20:54.030Z,24.47
2022-09-04T19:22:33.828Z,24.43
2022-09-04T19:24:13.551Z,24.38
2022-09-04T19:25:53.339Z,24.35
2022-09-04T19:27:33.120Z,24.33
2022-09-04T19:29:12.857Z,24.29
2022-09-04T19:30:52.634Z,24.25
2022-09-04T19:32:32.403Z,24.2
2022-09-04T19:34:12.196Z,24.17
2022-09-04T19:35:51.931Z,24.12
2022-09-04T19:37:31.701Z,24.09
2022-09-04T19:39:11.466Z,24.06
2022-09-04T19:42:30.996Z,24.01
2022-09-04T19:44:10.767Z,23.96
2022-09-04T19:45:50.525Z,23.93
2022-09-04T19:47:30.318Z,23.91
2022-09-04T19:49:10.077Z,23.87
2022-09-04T19:54:09.368Z,23.75
2022-09-04T19:55:49.148Z,23.71
2022-09-04T19:57:28.916Z,23.7
2022-09-04T19:59:08.684Z,23.66
2022-09-04T20:00:48.439Z,23.63
2022-09-04T20:02:28.212Z,23.59
2022-09-04T20:04:07.980Z,23.55
2022-09-04T20:05:47.746Z,23.52
2022-09-04T20:07:27.512Z,23.5
2022-09-04T20:09:07.277Z,23.46
2022-09-04T20:12:26.814Z,23.4
2022-09-04T20:14:06.591Z,23.34
2022-09-04T20:15:46.346Z,23.33
2022-09-04T20:17:26.120Z,23.28
2022-09-04T20:19:05.895Z,23.25
2022-09-04T20:20:45.649Z,23.2
2022-09-04T20:22:25.424Z,23.18
2022-09-04T20:24:05.196Z,23.14
2022-09-04T20:25:44.976Z,23.13
2022-09-04T20:27:24.720Z,23.09
2022-09-04T20:29:04.486Z,23.04
2022-09-04T20:30:44.255Z,23.03
2022-09-04T20:32:24.028Z,22.98
2022-09-04T20:34:03.791Z,22.95
2022-09-04T20:35:43.583Z,22.94
2022-09-04T20:37:23.354Z,22.89
2022-09-04T20:39:03.107Z,22.87
2022-09-04T20:42:22.635Z,22.79
2022-09-04T20:44:02.411Z,22.76
2022-09-04T20:45:42.171Z,22.75
2022-09-04T20:47:21.937Z,22.71
2022-09-04T20:49:01.704Z,22.69
2022-09-04T20:50:41.467Z,22.64
2022-09-04T20:52:21.237Z,22.62
2022-09-04T20:54:01.015Z,22.59
2022-09-04T20:55:40.789Z,22.55
2022-09-04T20:57:20.538Z,22.53
2022-09-04T20:59:00.315Z,22.5
2022-09-04T21:02:19.846Z,22.44
2022-09-04T21:03:59.618Z,22.4
2022-09-04T21:05:39.387Z,22.38
2022-09-04T21:07:19.151Z,22.35
2022-09-04T21:12:18.455Z,22.28
2022-09-04T21:13:58.214Z,22.24
2022-09-04T21:15:37.977Z,22.23
2022-09-04T21:17:17.757Z,22.19
2022-09-04T21:18:57.529Z,22.16
2022-09-04T21:22:17.059Z,22.11
2022-09-04T21:23:56.829Z,22.1
2022-09-04T21:25:36.579Z,22.06
2022-09-04T21:27:16.382Z,22.03
2022-09-04T21:28:56.123Z,22.02
2022-09-04T21:30:35.888Z,22.01
2022-09-04T21:32:15.669Z,21.97
2022-09-04T21:33:55.464Z,21.93
2022-09-04T21:35:35.185Z,21.92
2022-09-04T21:37:14.957Z,21.91
2022-09-04T21:38:54.725Z,21.87
2022-09-04T21:40:34.500Z,21.83
2022-09-04T21:42:14.273Z,21.81
2022-09-04T21:43:54.085Z,21.79
2022-09-04T21:45:33.801Z,21.78
2022-09-04T21:47:13.578Z,21.74
2022-09-04T21:48:53.323Z,21.72
2022-09-04T21:52:12.908Z,21.67
2022-09-04T21:53:52.634Z,21.64
2022-09-04T21:55:32.399Z,21.61
2022-09-04T21:57:12.168Z,21.59
2022-09-04T21:58:51.948Z,21.58
2022-09-04T22:02:11.470Z,21.53
2022-09-04T22:03:51.238Z,21.49
2022-09-04T22:05:31.011Z,21.48
2022-09-04T22:07:10.771Z,21.44
2022-09-04T22:08:50.555Z,21.42
2022-09-04T22:12:10.076Z,21.37
2022-09-04T22:15:29.618Z,21.34
2022-09-04T22:17:09.404Z,21.31
2022-09-04T22:18:49.149Z,21.28
2022-09-04T22:20:28.930Z,21.26
2022-09-04T22:22:08.688Z,21.24
2022-09-04T22:23:48.477Z,21.22
2022-09-04T22:25:28.210Z,21.19
2022-09-04T22:27:08.009Z,21.16
2022-09-04T22:28:47.774Z,21.15
2022-09-04T22:32:07.293Z,21.09
2022-09-04T22:33:47.051Z,21.07
2022-09-04T22:35:26.829Z,21.03
2022-09-04T22:37:06.592Z,21.02
2022-09-04T22:38:46.361Z,21
2022-09-04T22:40:26.124Z,20.96
2022-09-04T22:43:45.656Z,20.92
2022-09-04T22:45:25.430Z,20.9
2022-09-04T22:47:05.196Z,20.88
2022-09-04T22:52:04.562Z,20.81
2022-09-04T22:55:24.046Z,20.78
2022-09-04T22:57:03.850Z,20.75
2022-09-04T22:58:43.587Z,20.73
2022-09-04T23:02:03.109Z,20.68
2022-09-04T23:03:42.867Z,20.66
2022-09-04T23:05:22.652Z,20.65
2022-09-04T23:07:02.423Z,20.63
2022-09-04T23:08:42.186Z,20.61
2022-09-04T23:12:01.708Z,20.56
2022-09-04T23:13:41.475Z,20.53
2022-09-04T23:15:21.241Z,20.52
2022-09-04T23:17:01.011Z,20.5
2022-09-04T23:18:40.795Z,20.49
2022-09-04T23:22:00.303Z,20.43
2022-09-04T23:23:40.084Z,20.42
2022-09-04T23:25:19.848Z,20.4
2022-09-04T23:26:59.621Z,20.37
2022-09-04T23:28:39.373Z,20.35
2022-09-04T23:31:58.912Z,20.32
2022-09-04T23:33:38.690Z,20.29
2022-09-04T23:35:18.464Z,20.27
2022-09-04T23:36:58.224Z,20.25
2022-09-04T23:38:37.992Z,20.24
2022-09-04T23:41:57.536Z,20.2
2022-09-04T23:43:37.301Z,20.15
2022-09-04T23:45:17.108Z,20.15
2022-09-04T23:46:56.820Z,20.12
2022-09-04T23:48:36.601Z,20.12
2022-09-04T23:51:56.126Z,20.08
2022-09-04T23:53:35.901Z,20.06
2022-09-04T23:55:15.666Z,20.04
2022-09-04T23:56:55.424Z,20.02